.
WxDataArchive / Data Records for 2007-05-23
2007-05-22 May 2007 2007-05-24

Data Records for Wednesday, 23 May 2007

Time	Temp	Chill	HIndex	Humid	Dewpt	 Wind 	HiWind	WindDir	Rain 	Barom 
-----	----	-----	------	-----	-----	------	------	-------	-----	----- 
00:00	64.5	64.5	64.5	66	52.9	0	1	158	0.00	30.097 
00:05	64.3	64.3	64.3	66	52.7	0	0	---	0.00	30.096 
00:10	64.2	64.2	64.2	66	52.6	0	0	---	0.00	30.095 
00:15	64.0	64.0	64.0	67	52.8	0	0	---	0.00	30.096 
00:20	64.0	64.0	64.0	66	52.4	0	0	---	0.00	30.095 
00:25	63.9	63.9	63.9	67	52.7	0	0	---	0.00	30.093 
00:30	63.7	63.7	63.7	67	52.5	0	0	---	0.00	30.095 
00:35	63.4	63.4	63.4	68	52.6	0	0	---	0.00	30.091 
00:40	63.2	63.2	63.2	68	52.5	0	0	---	0.00	30.093 
00:45	62.9	62.9	62.9	69	52.6	0	0	---	0.00	30.093 
00:50	62.7	62.7	62.7	69	52.4	0	0	---	0.00	30.093 
00:55	62.4	62.4	62.4	70	52.5	0	0	---	0.00	30.094 
01:00	62.1	62.1	62.1	71	52.6	0	0	---	0.00	30.094 
01:05	62.0	62.0	62.0	72	52.9	0	0	---	0.00	30.092 
01:10	61.6	61.6	61.6	72	52.5	0	0	---	0.00	30.090 
01:15	61.3	61.3	61.3	73	52.6	0	0	---	0.00	30.093 
01:20	61.2	61.2	61.2	74	52.8	0	0	---	0.00	30.095 
01:25	60.9	60.9	60.9	74	52.6	0	0	---	0.00	30.092 
01:30	60.7	60.7	60.7	74	52.4	0	1	158	0.00	30.092 
01:35	60.5	60.5	60.5	75	52.5	0	0	---	0.00	30.090 
01:40	60.4	60.4	60.4	75	52.4	0	0	---	0.00	30.088 
01:45	60.1	60.1	60.1	76	52.5	0	0	---	0.00	30.091 
01:50	59.9	59.9	59.9	76	52.3	0	0	---	0.00	30.089 
01:55	59.8	59.8	59.8	77	52.6	0	0	---	0.00	30.088 
02:00	59.6	59.6	59.6	77	52.4	0	0	---	0.00	30.090 
02:05	59.3	59.3	59.3	77	52.1	0	0	---	0.00	30.091 
02:10	59.2	59.2	59.2	77	52.0	0	0	---	0.00	30.095 
02:15	59.0	59.0	59.0	78	52.1	0	0	---	0.00	30.093 
02:20	58.9	58.9	58.9	79	52.4	0	0	---	0.00	30.093 
02:25	58.7	58.7	58.7	80	52.5	0	0	---	0.00	30.093 
02:30	58.6	58.6	58.6	80	52.4	0	0	---	0.00	30.098 
02:35	58.4	58.4	58.4	81	52.6	0	0	---	0.00	30.098 
02:40	58.1	58.1	58.1	81	52.3	0	0	---	0.00	30.100 
02:45	58.0	58.0	58.0	82	52.5	0	0	---	0.00	30.100 
02:50	57.8	57.8	57.8	82	52.3	0	0	---	0.00	30.101 
02:55	57.6	57.6	57.6	82	52.1	0	0	---	0.00	30.101 
03:00	57.5	57.5	57.5	83	52.4	0	0	---	0.00	30.102 
03:05	57.2	57.2	57.2	83	52.1	0	0	---	0.00	30.103 
03:10	57.0	57.0	57.0	84	52.2	0	0	---	0.00	30.102 
03:15	56.9	56.9	56.9	85	52.4	0	0	---	0.00	30.101 
03:20	56.7	56.7	56.7	85	52.2	0	0	---	0.00	30.101 
03:25	56.6	56.6	56.6	86	52.5	0	0	---	0.00	30.103 
03:30	56.5	56.5	56.5	86	52.4	0	0	---	0.00	30.103 
03:35	56.3	56.3	56.3	87	52.5	0	0	---	0.00	30.106 
03:40	56.3	56.3	56.3	87	52.5	0	1	158	0.00	30.107 
03:45	56.2	56.2	56.2	87	52.4	0	0	---	0.00	30.112 
03:50	56.2	56.2	56.2	88	52.7	0	1	158	0.00	30.113 
03:55	56.0	56.0	56.0	88	52.5	0	0	---	0.00	30.113 
04:00	55.9	55.9	55.9	88	52.4	0	0	---	0.00	30.115 
04:05	55.9	55.9	55.9	88	52.4	0	0	---	0.00	30.115 
04:10	55.7	55.7	55.7	88	52.2	0	0	---	0.00	30.116 
04:15	55.6	55.6	55.6	88	52.1	0	0	---	0.00	30.115 
04:20	55.6	55.6	55.6	89	52.4	0	0	---	0.00	30.114 
04:25	55.4	55.4	55.4	89	52.2	0	0	---	0.00	30.116 
04:30	55.4	55.4	55.4	89	52.2	0	0	---	0.00	30.120 
04:35	55.3	55.3	55.3	89	52.1	0	0	---	0.00	30.121 
04:40	55.3	55.3	55.3	89	52.1	0	0	---	0.00	30.121 
04:45	55.1	55.1	55.1	90	52.2	0	0	---	0.00	30.122 
04:50	55.0	55.0	55.0	90	52.1	0	0	---	0.00	30.123 
04:55	54.8	54.8	54.8	90	51.9	0	0	---	0.00	30.125 
05:00	54.8	54.8	54.8	90	51.9	0	0	---	0.00	30.126 
05:05	54.7	54.7	54.7	90	51.8	0	0	---	0.00	30.131 
05:10	54.5	54.5	54.5	90	51.6	0	0	---	0.00	30.132 
05:15	54.4	54.4	54.4	91	51.8	0	0	---	0.00	30.133 
05:20	54.2	54.2	54.2	91	51.6	0	0	---	0.00	30.135 
05:25	54.2	54.2	54.2	91	51.6	0	0	---	0.00	30.137 
05:30	54.1	54.1	54.1	91	51.5	0	0	---	0.00	30.138 
05:35	54.1	54.1	54.1	91	51.5	0	0	---	0.00	30.139 
05:40	53.9	53.9	53.9	91	51.3	0	0	---	0.00	30.140 
05:45	53.9	53.9	53.9	92	51.6	0	0	---	0.00	30.141 
05:50	54.1	54.1	54.1	92	51.8	0	0	---	0.00	30.144 
05:55	54.2	54.2	54.2	92	51.9	0	0	---	0.00	30.147 
06:00	54.4	54.4	54.4	92	52.1	0	0	---	0.00	30.149 
06:05	54.5	54.5	54.5	92	52.2	0	0	---	0.00	30.153 
06:10	54.7	54.7	54.7	92	52.4	0	0	---	0.00	30.155 
06:15	55.0	55.0	55.0	92	52.7	0	0	---	0.00	30.159 
06:20	55.7	55.7	55.7	91	53.1	0	0	---	0.00	30.160 
06:25	56.5	56.5	56.5	90	53.6	0	0	---	0.00	30.163 
06:30	57.3	57.3	57.3	88	53.8	0	1	158	0.00	30.167 
06:35	58.6	58.6	58.6	83	53.4	0	0	---	0.00	30.167 
06:40	59.6	59.6	59.6	78	52.7	0	1	158	0.00	30.166 
06:45	61.0	61.0	61.0	76	53.4	0	1	158	0.00	30.166 
06:50	62.1	62.1	62.1	73	53.3	0	1	158	0.00	30.165 
06:55	63.1	63.1	63.1	71	53.5	0	1	158	0.00	30.167 
07:00	64.0	64.0	64.0	71	54.4	0	2	158	0.00	30.165 
07:05	65.0	65.0	65.0	67	53.8	0	1	158	0.00	30.167 
07:10	65.8	65.8	65.8	67	54.5	0	1	158	0.00	30.168 
07:15	66.6	66.6	66.6	66	54.9	0	1	158	0.00	30.166 
07:20	66.9	66.9	66.9	65	54.7	0	1	158	0.00	30.167 
07:25	67.4	67.4	67.4	65	55.2	0	1	158	0.00	30.170 
07:30	68.6	68.6	68.6	61	54.6	0	2	158	0.00	30.174 
07:35	69.6	69.6	69.6	60	55.1	0	1	158	0.00	30.176 
07:40	70.1	70.1	70.1	58	54.6	1	3	112	0.00	30.177 
07:45	70.6	70.6	70.6	58	55.1	0	2	135	0.00	30.177 
07:50	71.3	71.3	71.3	57	55.3	0	1	135	0.00	30.177 
07:55	72.0	72.0	72.0	57	55.9	0	1	135	0.00	30.177 
08:00	72.7	72.7	72.7	54	55.1	0	3	135	0.00	30.178 
08:05	73.2	73.2	73.2	56	56.5	0	3	135	0.00	30.184 
08:10	73.5	73.5	73.5	54	55.8	0	2	135	0.00	30.186 
08:15	74.2	74.2	74.2	51	54.9	1	2	135	0.00	30.183 
08:20	74.9	74.9	74.9	52	56.1	0	2	135	0.00	30.185 
08:25	75.4	75.4	77.8	51	56.0	1	3	135	0.00	30.183 
08:30	76.0	76.0	78.1	51	56.5	1	3	112	0.00	30.183 
08:35	76.7	76.7	78.4	50	56.6	0	1	112	0.00	30.183 
08:40	77.4	77.4	78.7	47	55.6	1	2	112	0.00	30.184 
08:45	78.1	78.1	79.0	45	55.0	0	2	112	0.00	30.180 
08:50	78.6	78.6	79.2	43	54.2	0	2	112	0.00	30.181 
08:55	79.0	79.0	79.5	43	54.6	1	4	112	0.00	30.181 
09:00	79.2	79.2	79.5	42	54.1	1	3	248	0.00	30.182 
09:05	79.8	79.8	79.9	41	54.0	1	3	0	0.00	30.182 
09:10	79.4	79.4	79.6	41	53.6	2	5	292	0.00	30.184 
09:15	79.6	79.6	79.7	40	53.1	1	3	248	0.00	30.182 
09:20	79.8	79.8	79.7	39	52.6	1	4	270	0.00	30.182 
09:25	80.3	80.3	80.1	40	53.8	1	4	248	0.00	30.180 
09:30	81.1	81.1	80.7	40	54.5	1	3	248	0.00	30.180 
09:35	81.8	81.8	80.9	36	52.2	1	5	0	0.00	30.179 
09:40	82.0	82.0	80.8	34	50.8	2	4	270	0.00	30.178 
09:45	82.4	82.4	81.2	35	52.0	1	4	112	0.00	30.178 
09:50	82.4	82.4	81.0	33	50.4	3	6	90	0.00	30.178 
09:55	82.6	82.6	81.4	35	52.1	2	7	68	0.00	30.177 
10:00	82.8	82.8	81.2	31	49.0	2	5	68	0.00	30.177 
10:05	83.6	83.6	82.2	35	53.0	1	3	22	0.00	30.179 
10:10	83.8	83.8	82.3	34	52.4	1	3	248	0.00	30.178 
10:15	84.0	84.0	82.3	33	51.8	1	5	248	0.00	30.177 
10:20	84.3	84.3	82.4	31	50.3	2	6	90	0.00	30.177 
10:25	84.5	84.5	82.6	32	51.4	1	3	270	0.00	30.177 
10:30	84.9	84.9	82.7	29	49.1	2	4	90	0.00	30.176 
10:35	85.5	85.5	83.3	30	50.5	0	3	90	0.00	30.175 
10:40	85.9	85.9	83.5	29	49.9	1	4	68	0.00	30.174 
10:45	85.9	85.9	83.5	29	49.9	2	6	270	0.00	30.172 
10:50	86.3	86.3	83.9	29	50.3	2	5	90	0.00	30.172 
10:55	86.5	86.5	84.4	31	52.2	1	5	270	0.00	30.171 
11:00	86.3	86.3	83.7	27	48.3	2	7	270	0.00	30.170 
11:05	86.5	86.5	83.8	27	48.5	2	9	270	0.00	30.166 
11:10	86.5	86.5	83.8	27	48.5	2	8	270	0.00	30.170 
11:15	86.7	86.7	84.0	27	48.7	2	5	248	0.00	30.166 
11:20	87.0	87.0	84.3	27	48.9	2	5	270	0.00	30.166 
11:25	87.2	87.2	84.2	24	46.0	2	11	270	0.00	30.166 
11:30	87.2	87.2	84.3	25	47.1	2	11	270	0.00	30.166 
11:35	87.8	87.8	84.9	26	48.6	1	4	248	0.00	30.162 
11:40	88.2	88.2	85.2	25	47.9	2	6	270	0.00	30.163 
11:45	88.2	88.2	85.2	25	47.9	1	4	248	0.00	30.163 
11:50	88.2	88.2	85.1	24	46.8	3	6	270	0.00	30.166 
11:55	88.0	88.0	84.9	24	46.6	2	5	270	0.00	30.161 
12:00	88.4	88.4	85.5	26	49.1	1	3	248	0.00	30.159 
12:05	88.6	88.6	85.6	25	48.2	2	7	248	0.00	30.160 
12:10	88.4	88.4	85.4	25	48.1	2	8	270	0.00	30.159 
12:15	88.0	88.0	84.9	24	46.6	3	7	292	0.00	30.160 
12:20	88.0	88.0	84.9	24	46.6	2	4	292	0.00	30.159 
12:25	87.6	87.6	84.5	24	46.3	2	5	292	0.00	30.159 
12:30	86.7	86.7	83.8	25	46.6	2	5	248	0.00	30.161 
12:35	87.0	87.0	84.1	25	46.9	1	4	270	0.00	30.160 
12:40	88.0	88.0	85.0	25	47.7	2	3	292	0.00	30.156 
12:45	88.4	88.4	85.3	24	47.0	2	5	270	0.00	30.157 
12:50	88.2	88.2	85.1	24	46.8	3	10	248	0.00	30.158 
12:55	88.4	88.4	85.1	23	45.9	3	6	270	0.00	30.158 
13:00	87.4	87.4	84.4	25	47.2	2	5	270	0.00	30.156 
13:05	86.5	86.5	83.5	24	45.4	2	6	270	0.00	30.161 
13:10	87.0	87.0	84.0	24	45.8	3	6	270	0.00	30.159 
13:15	87.2	87.2	84.2	24	46.0	1	5	270	0.00	30.155 
13:20	86.7	86.7	83.7	24	45.6	2	5	292	0.00	30.152 
13:25	87.6	87.6	84.9	27	49.4	2	4	292	0.00	30.151 
13:30	88.0	88.0	85.0	25	47.7	2	6	270	0.00	30.151 
13:35	88.4	88.4	85.3	24	47.0	1	3	270	0.00	30.150 
13:40	88.6	88.6	85.3	23	46.0	2	4	270	0.00	30.149 
13:45	88.8	88.8	85.8	25	48.4	1	3	270	0.00	30.148 
13:50	88.8	88.8	85.5	23	46.2	2	5	248	0.00	30.145 
13:55	89.3	89.3	86.1	24	47.7	3	6	270	0.00	30.147 
14:00	89.3	89.3	86.0	23	46.6	4	10	270	0.00	30.148 
14:05	89.3	89.3	86.3	25	48.8	2	3	270	0.00	30.147 
14:10	89.0	89.0	86.0	25	48.6	2	11	112	0.00	30.146 
14:15	89.3	89.3	85.9	22	45.4	2	7	248	0.00	30.144 
14:20	89.5	89.5	86.3	24	47.9	1	3	270	0.00	30.142 
14:25	89.9	89.9	86.9	25	49.3	2	4	248	0.00	30.138 
14:30	90.1	90.1	86.7	22	46.1	2	4	248	0.00	30.138 
14:35	90.1	90.1	86.7	22	46.1	1	5	270	0.00	30.135 
14:40	89.9	89.9	87.0	26	50.4	2	8	90	0.00	30.135 
14:45	88.8	88.8	85.6	24	47.3	3	5	90	0.00	30.134 
14:50	88.8	88.8	85.6	24	47.3	1	3	90	0.00	30.132 
14:55	89.7	89.7	86.4	23	46.9	2	7	270	0.00	30.130 
15:00	89.9	89.9	86.5	22	45.9	2	6	270	0.00	30.131 
15:05	89.5	89.5	86.1	22	45.6	2	5	270	0.00	30.132 
15:10	89.3	89.3	85.9	22	45.4	3	5	90	0.00	30.131 
15:15	89.0	89.0	85.5	21	44.0	2	5	270	0.00	30.133 
15:20	88.8	88.8	85.5	23	46.2	2	5	248	0.00	30.131 
15:25	88.8	88.8	85.5	23	46.2	1	7	270	0.00	30.129 
15:30	89.0	89.0	85.6	22	45.2	3	6	112	0.00	30.129 
15:35	89.0	89.0	85.8	24	47.5	2	7	248	0.00	30.127 
15:40	89.3	89.3	85.9	22	45.4	2	7	270	0.00	30.126 
15:45	89.3	89.3	86.3	25	48.8	2	6	270	0.00	30.123 
15:50	89.3	89.3	86.1	24	47.7	2	5	270	0.00	30.122 
15:55	88.6	88.6	85.5	24	47.1	2	7	90	0.00	30.122 
16:00	88.0	88.0	85.0	25	47.7	2	6	270	0.00	30.121 
16:05	88.0	88.0	85.0	25	47.7	1	5	248	0.00	30.122 
16:10	88.2	88.2	85.1	24	46.8	2	6	270	0.00	30.120 
16:15	88.2	88.2	85.2	25	47.9	2	5	270	0.00	30.121 
16:20	88.2	88.2	85.2	25	47.9	2	5	270	0.00	30.120 
16:25	88.4	88.4	85.5	26	49.1	2	5	90	0.00	30.120 
16:30	88.4	88.4	85.5	26	49.1	1	5	270	0.00	30.120 
16:35	88.0	88.0	85.0	25	47.7	3	10	90	0.00	30.121 
16:40	87.8	87.8	84.7	24	46.5	2	6	90	0.00	30.121 
16:45	88.0	88.0	84.9	24	46.6	1	4	315	0.00	30.120 
16:50	88.0	88.0	85.0	25	47.7	1	5	270	0.00	30.123 
16:55	88.0	88.0	84.9	24	46.6	2	4	248	0.00	30.123 
17:00	87.8	87.8	84.8	25	47.6	2	4	248	0.00	30.122 
17:05	87.6	87.6	84.6	25	47.4	1	4	45	0.00	30.121 
17:10	87.6	87.6	84.7	26	48.4	1	4	90	0.00	30.122 
17:15	87.6	87.6	84.6	25	47.4	2	4	248	0.00	30.126 
17:20	87.2	87.2	84.3	25	47.1	1	6	270	0.00	30.128 
17:25	87.0	87.0	84.1	25	46.9	1	5	248	0.00	30.127 
17:30	86.7	86.7	83.7	24	45.6	1	4	248	0.00	30.128 
17:35	86.5	86.5	83.6	25	46.5	1	3	270	0.00	30.127 
17:40	86.1	86.1	83.4	26	47.2	2	7	225	0.00	30.127 
17:45	85.7	85.7	82.9	25	45.8	2	6	270	0.00	30.127 
17:50	85.9	85.9	83.1	25	46.0	1	4	270	0.00	30.124 
17:55	85.9	85.9	83.0	24	44.9	2	9	270	0.00	30.123 
18:00	85.7	85.7	83.0	26	46.8	1	6	292	0.00	30.122 
18:05	85.5	85.5	82.7	24	44.6	1	6	270	0.00	30.114 
18:10	85.5	85.5	82.9	26	46.7	0	2	248	0.00	30.114 
18:15	85.3	85.3	82.7	26	46.5	0	2	248	0.00	30.115 
18:20	85.1	85.1	82.6	27	47.3	0	2	248	0.00	30.115 
18:25	84.9	84.9	82.4	26	46.2	1	3	248	0.00	30.116 
18:30	84.7	84.7	82.2	26	46.0	1	2	292	0.00	30.115 
18:35	84.5	84.5	82.0	26	45.8	1	3	270	0.00	30.116 
18:40	84.3	84.3	81.9	26	45.7	0	3	270	0.00	30.117 
18:45	84.3	84.3	81.9	26	45.7	0	2	270	0.00	30.117 
18:50	84.0	84.0	81.6	26	45.4	0	3	292	0.00	30.116 
18:55	83.8	83.8	81.5	26	45.2	0	2	270	0.00	30.116 
19:00	83.8	83.8	81.5	26	45.2	1	5	248	0.00	30.117 
19:05	83.6	83.6	81.4	27	46.1	0	3	270	0.00	30.112 
19:10	83.2	83.2	81.1	27	45.7	0	1	270	0.00	30.113 
19:15	82.8	82.8	80.8	27	45.4	0	1	270	0.00	30.113 
19:20	82.2	82.2	80.5	28	45.8	0	0	---	0.00	30.115 
19:25	81.8	81.8	80.2	28	45.5	0	0	---	0.00	30.116 
19:30	81.2	81.2	79.9	29	45.9	0	0	---	0.00	30.118 
19:35	80.9	80.9	79.7	29	45.6	0	0	---	0.00	30.118 
19:40	80.3	80.3	79.4	30	46.0	0	0	---	0.00	30.119 
19:45	79.8	79.8	79.1	31	46.5	0	0	---	0.00	30.122 
19:50	79.4	79.4	78.9	31	46.1	0	0	---	0.00	30.122 
19:55	78.8	78.8	78.7	33	47.2	0	0	---	0.00	30.123 
20:00	78.3	78.3	78.5	33	46.8	0	0	---	0.00	30.124 
20:05	77.9	77.9	78.3	33	46.5	0	0	---	0.00	30.122 
20:10	77.7	77.7	78.2	34	47.1	0	1	270	0.00	30.121 
20:15	77.6	77.6	78.2	35	47.8	0	1	270	0.00	30.121 
20:20	77.2	77.2	78.1	36	48.2	0	0	---	0.00	30.122 
20:25	76.7	76.7	77.9	36	47.7	0	0	---	0.00	30.124 
20:30	76.3	76.3	77.7	36	47.4	0	1	270	0.00	30.126 
20:35	76.1	76.1	77.7	37	47.9	0	1	270	0.00	30.127 
20:40	76.0	76.0	77.7	38	48.5	0	0	---	0.00	30.128 
20:45	75.6	75.6	77.6	37	47.5	0	0	---	0.00	30.129 
20:50	75.3	75.3	77.5	39	48.6	0	0	---	0.00	30.129 
20:55	75.1	75.1	77.5	39	48.4	0	0	---	0.00	30.130 
21:00	74.7	74.7	74.7	40	48.8	0	0	---	0.00	30.131 
21:05	74.6	74.6	74.6	40	48.7	0	0	---	0.00	30.130 
21:10	74.2	74.2	74.2	40	48.3	0	0	---	0.00	30.135 
21:15	73.9	73.9	73.9	41	48.7	0	0	---	0.00	30.136 
21:20	73.7	73.7	73.7	41	48.5	0	0	---	0.00	30.137 
21:25	73.5	73.5	73.5	42	49.0	0	0	---	0.00	30.139 
21:30	73.5	73.5	73.5	42	49.0	0	1	270	0.00	30.140 
21:35	73.5	73.5	73.5	42	49.0	0	0	---	0.00	30.141 
21:40	73.3	73.3	73.3	43	49.4	0	0	---	0.00	30.144 
21:45	73.3	73.3	73.3	43	49.4	0	0	---	0.00	30.145 
21:50	73.2	73.2	73.2	43	49.3	0	0	---	0.00	30.148 
21:55	73.0	73.0	73.0	44	49.8	0	0	---	0.00	30.151 
22:00	73.0	73.0	73.0	44	49.8	0	0	---	0.00	30.153 
22:05	73.0	73.0	73.0	43	49.2	0	1	270	0.00	30.153 
22:10	73.2	73.2	73.2	44	50.0	0	1	270	0.00	30.153 
22:15	73.2	73.2	73.2	44	50.0	0	1	270	0.00	30.153 
22:20	73.0	73.0	73.0	45	50.4	0	1	270	0.00	30.154 
22:25	73.0	73.0	73.0	45	50.4	0	1	270	0.00	30.155 
22:30	72.8	72.8	72.8	45	50.2	0	0	---	0.00	30.156 
22:35	72.7	72.7	72.7	46	50.7	0	0	---	0.00	30.156 
22:40	72.5	72.5	72.5	47	51.1	0	0	---	0.00	30.156 
22:45	72.1	72.1	72.1	48	51.3	0	0	---	0.00	30.156 
22:50	72.0	72.0	72.0	47	50.7	0	0	---	0.00	30.157 
22:55	71.8	71.8	71.8	48	51.0	0	1	270	0.00	30.156 
23:00	71.8	71.8	71.8	48	51.0	0	0	---	0.00	30.157 
23:05	71.6	71.6	71.6	49	51.4	0	1	270	0.00	30.156 
23:10	71.5	71.5	71.5	49	51.3	0	0	---	0.00	30.156 
23:15	71.5	71.5	71.5	49	51.3	0	1	270	0.00	30.157 
23:20	71.3	71.3	71.3	50	51.7	0	0	---	0.00	30.159 
23:25	70.9	70.9	70.9	51	51.9	0	0	---	0.00	30.159 
23:30	70.8	70.8	70.8	51	51.8	0	0	---	0.00	30.158 
23:35	70.6	70.6	70.6	52	52.1	0	0	---	0.00	30.159 
23:40	70.4	70.4	70.4	52	51.9	0	0	---	0.00	30.157 
23:45	70.1	70.1	70.1	53	52.2	0	0	---	0.00	30.158 
23:50	69.8	69.8	69.8	53	51.9	0	0	---	0.00	30.160 
23:55	69.3	69.3	69.3	54	51.9	0	0	---	0.00	30.164 

CoCoRaHS
IN-AL-39
A2 Web Hosting
Creative Commons License
GoDaddy
Look for:

loaded 2017-12-12 16:43:59 • last modified 2010-11-18 10:43:29
Privacy PolicyDisclaimer
• wx.awcolley.com is powered by PmWiki v.2002016 •
• all content (unless otherwise noted) © 2017 A W Colley